Time;durP1;ratioP1;P1;durP2;ratioP2;P2;SDS_P1;SDS_P2;PMS_P1;PMS_P2;Temp;Humidity;BMP_temperature;BMP_pressure;BME280_temperature;BME280_humidity;BME280_pressure;Samples;Min_cycle;Max_cycle;Signal;HPM_P1;HPM_P2
2023/05/17 00:00:12;;;;;;;4.77;2.03;;;10.60;1.00;;;;;;5060912;28;21038;-69
2023/05/17 00:02:39;;;;;;;3.50;1.50;;;10.60;1.00;;;;;;5066190;27;20460;-68
2023/05/17 00:05:06;;;;;;;4.90;2.07;;;10.60;1.00;;;;;;5064242;28;20509;-69
2023/05/17 00:07:33;;;;;;;4.10;2.20;;;10.50;1.00;;;;;;5056783;28;20562;-68
2023/05/17 00:10:00;;;;;;;4.13;2.70;;;10.50;1.00;;;;;;5068055;27;20447;-69
2023/05/17 00:12:27;;;;;;;4.73;2.23;;;10.40;1.00;;;;;;5069319;27;20490;-70
2023/05/17 00:14:54;;;;;;;5.97;2.80;;;10.40;1.00;;;;;;5066640;27;20669;-68
2023/05/17 00:17:23;;;;;;;6.57;2.53;;;10.30;1.00;;;;;;5060222;28;20669;-69
2023/05/17 00:19:49;;;;;;;4.47;2.40;;;10.20;1.00;;;;;;5066743;28;20463;-69
2023/05/17 00:22:16;;;;;;;4.00;2.40;;;10.20;1.00;;;;;;5063108;28;20471;-68
2023/05/17 00:24:43;;;;;;;4.10;2.47;;;10.20;1.00;;;;;;5066153;27;20535;-69
2023/05/17 00:27:10;;;;;;;8.30;2.70;;;10.10;1.00;;;;;;5066506;28;20541;-69
2023/05/17 00:29:38;;;;;;;5.53;3.00;;;10.10;1.00;;;;;;5067849;28;20451;-68
2023/05/17 00:32:08;;;;;;;5.87;2.57;;;10.00;1.00;;;;;;5071488;27;20557;-68
2023/05/17 00:34:36;;;;;;;4.20;2.70;;;10.00;1.00;;;;;;5068514;27;20488;-68
2023/05/17 00:37:06;;;;;;;13.60;4.23;;;10.00;1.00;;;;;;5066023;27;21072;-68
2023/05/17 00:39:33;;;;;;;6.97;2.93;;;9.90;1.00;;;;;;5056663;28;20460;-68
2023/05/17 00:42:01;;;;;;;5.10;3.30;;;9.90;1.00;;;;;;5059213;27;20463;-69
2023/05/17 00:44:28;;;;;;;5.90;3.07;;;9.90;1.00;;;;;;5056377;27;20578;-68
2023/05/17 00:46:54;;;;;;;6.03;3.30;;;9.90;1.00;;;;;;5058932;27;20494;-68
2023/05/17 00:49:22;;;;;;;5.53;3.00;;;9.90;1.00;;;;;;5048039;28;20462;-68
2023/05/17 00:51:51;;;;;;;6.77;3.30;;;9.80;1.00;;;;;;5062334;28;20451;-69
2023/05/17 00:54:19;;;;;;;5.63;3.00;;;9.80;1.00;;;;;;5053369;27;21240;-68
2023/05/17 00:56:46;;;;;;;5.63;3.13;;;9.80;1.00;;;;;;5057023;28;20471;-69
2023/05/17 00:59:14;;;;;;;6.10;3.20;;;9.70;1.00;;;;;;5060399;28;20542;-70
2023/05/17 01:01:42;;;;;;;4.40;3.67;;;9.70;1.00;;;;;;5048364;28;20461;-72
2023/05/17 01:04:10;;;;;;;7.27;3.70;;;9.70;1.00;;;;;;5026268;22;20499;-70
2023/05/17 01:06:37;;;;;;;11.80;4.37;;;9.70;1.00;;;;;;5014829;28;20485;-70
2023/05/17 01:09:07;;;;;;;5.47;3.57;;;9.70;1.00;;;;;;4994283;28;20459;-69
2023/05/17 01:11:42;;;;;;;7.97;3.77;;;9.70;1.00;;;;;;5009054;28;20478;-69
2023/05/17 01:14:18;;;;;;;6.73;3.50;;;9.70;1.00;;;;;;5007048;28;20915;-69
2023/05/17 01:16:56;;;;;;;10.00;3.90;;;9.70;1.00;;;;;;5017822;28;20512;-70
2023/05/17 01:19:45;;;;;;;7.60;3.73;;;9.70;1.00;;;;;;5031351;28;20467;-69
2023/05/17 01:22:20;;;;;;;6.63;4.23;;;9.60;1.00;;;;;;5028131;28;20496;-69
2023/05/17 01:24:59;;;;;;;7.73;3.80;;;9.60;1.00;;;;;;5029201;28;20540;-70
2023/05/17 01:27:30;;;;;;;6.43;3.60;;;9.60;1.00;;;;;;5008861;28;20536;-69
2023/05/17 01:29:57;;;;;;;6.47;3.90;;;9.60;1.00;;;;;;5014182;28;20455;-69
2023/05/17 01:32:25;;;;;;;6.70;3.80;;;9.60;1.00;;;;;;4997507;28;20573;-69
2023/05/17 01:34:52;;;;;;;8.63;4.10;;;9.60;1.00;;;;;;5000765;28;20466;-69
2023/05/17 01:37:19;;;;;;;6.77;3.70;;;9.60;1.00;;;;;;5007745;28;20851;-70
2023/05/17 01:39:46;;;;;;;8.90;5.17;;;9.60;1.00;;;;;;5007589;28;20508;-69
2023/05/17 01:42:20;;;;;;;9.33;4.63;;;9.60;1.00;;;;;;5007916;28;20545;-69
2023/05/17 01:44:55;;;;;;;9.17;3.63;;;9.50;1.00;;;;;;5014958;28;20464;-70
2023/05/17 01:47:32;;;;;;;19.27;4.30;;;9.50;1.00;;;;;;5008654;28;20466;-69
2023/05/17 01:50:00;;;;;;;7.80;4.27;;;9.40;1.00;;;;;;5024601;28;20468;-69
2023/05/17 01:52:32;;;;;;;11.80;4.83;;;9.40;1.00;;;;;;5029317;28;20449;-70
2023/05/17 01:55:08;;;;;;;8.90;4.70;;;9.40;1.00;;;;;;5021116;28;20473;-70
2023/05/17 01:57:36;;;;;;;12.80;4.80;;;9.40;1.00;;;;;;5005050;28;21181;-69
2023/05/17 02:00:08;;;;;;;7.17;3.80;;;9.40;1.00;;;;;;5003591;28;20464;-69
2023/05/17 02:02:35;;;;;;;7.30;4.00;;;9.30;1.00;;;;;;5010779;28;20537;-69
2023/05/17 02:05:02;;;;;;;9.80;5.70;;;9.30;1.00;;;;;;5008721;28;20486;-70
2023/05/17 02:07:29;;;;;;;9.30;4.43;;;9.30;1.00;;;;;;5013914;28;20504;-69
2023/05/17 02:09:56;;;;;;;7.97;4.50;;;9.30;1.00;;;;;;5018126;28;21007;-70
2023/05/17 02:12:24;;;;;;;8.80;4.23;;;9.30;1.00;;;;;;5008876;28;20460;-69
2023/05/17 02:14:51;;;;;;;8.53;4.73;;;9.30;1.00;;;;;;5016804;28;20541;-69
2023/05/17 02:17:19;;;;;;;8.20;4.20;;;9.30;1.00;;;;;;5004490;28;20497;-70
2023/05/17 02:19:46;;;;;;;8.47;5.23;;;9.30;1.00;;;;;;5005095;28;20470;-68
2023/05/17 02:22:13;;;;;;;7.93;4.00;;;9.30;1.00;;;;;;5001541;28;20465;-70
2023/05/17 02:24:39;;;;;;;8.87;4.57;;;9.30;1.00;;;;;;4997661;28;20544;-69
2023/05/17 02:27:07;;;;;;;9.50;4.70;;;9.30;1.00;;;;;;4997419;28;20476;-70
2023/05/17 02:29:34;;;;;;;9.53;4.57;;;9.30;1.00;;;;;;4998510;28;21175;-69
2023/05/17 02:32:01;;;;;;;10.47;4.27;;;9.30;1.00;;;;;;4997346;28;20997;-70
2023/05/17 02:34:30;;;;;;;12.60;4.80;;;9.30;1.00;;;;;;5001680;28;20480;-69
2023/05/17 02:36:57;;;;;;;6.67;4.60;;;9.30;1.00;;;;;;5012794;28;20508;-68
2023/05/17 02:39:24;;;;;;;4.67;3.73;;;9.30;1.00;;;;;;5015242;28;20505;-69
2023/05/17 02:41:51;;;;;;;9.53;5.00;;;9.30;1.00;;;;;;5008390;28;20501;-69
2023/05/17 02:44:18;;;;;;;12.60;4.77;;;9.30;1.00;;;;;;5008815;28;20527;-68
2023/05/17 02:46:45;;;;;;;14.47;4.27;;;9.30;1.00;;;;;;5013638;28;20504;-69
2023/05/17 02:49:12;;;;;;;8.67;4.20;;;9.30;1.00;;;;;;5017960;28;20502;-69
2023/05/17 02:51:40;;;;;;;9.30;4.63;;;9.40;1.00;;;;;;5016710;28;20532;-69
2023/05/17 02:54:07;;;;;;;16.63;7.30;;;9.50;1.00;;;;;;5030114;28;20477;-69
2023/05/17 02:56:34;;;;;;;8.83;4.57;;;9.60;1.00;;;;;;5026893;28;20508;-69
2023/05/17 02:59:01;;;;;;;11.70;5.90;;;9.70;1.00;;;;;;5020251;28;20560;-69
2023/05/17 03:01:28;;;;;;;6.07;4.17;;;9.70;1.00;;;;;;5017945;28;21739;-70
2023/05/17 03:03:55;;;;;;;8.80;4.50;;;9.80;1.00;;;;;;5021211;28;20488;-69
2023/05/17 03:06:22;;;;;;;9.43;4.53;;;9.90;1.00;;;;;;5008535;28;20652;-69
2023/05/17 03:08:50;;;;;;;11.30;5.33;;;9.90;1.00;;;;;;5009855;28;20490;-69
2023/05/17 03:11:17;;;;;;;6.27;5.20;;;9.90;1.00;;;;;;5008991;28;20556;-69
2023/05/17 03:13:45;;;;;;;10.00;5.23;;;10.00;1.00;;;;;;5009722;28;21242;-70
2023/05/17 03:16:12;;;;;;;9.40;4.50;;;10.00;1.00;;;;;;5010429;28;20478;-68
2023/05/17 03:18:39;;;;;;;9.50;4.80;;;10.00;1.00;;;;;;5011558;28;20530;-69
2023/05/17 03:21:06;;;;;;;7.60;4.70;;;10.00;1.00;;;;;;5009097;28;20462;-70
2023/05/17 03:23:33;;;;;;;8.33;5.00;;;10.00;1.00;;;;;;5004366;28;20427;-68
2023/05/17 03:26:01;;;;;;;8.80;5.70;;;10.00;1.00;;;;;;5002172;28;20474;-69
2023/05/17 03:28:28;;;;;;;9.93;4.93;;;10.10;1.00;;;;;;5002775;28;20451;-70
2023/05/17 03:30:55;;;;;;;12.13;4.80;;;10.00;1.00;;;;;;5007227;28;20484;-70
2023/05/17 03:33:22;;;;;;;9.20;4.93;;;10.00;1.00;;;;;;5019019;28;20648;-70
2023/05/17 03:35:49;;;;;;;10.00;4.90;;;10.00;1.00;;;;;;5009245;28;21285;-70
2023/05/17 03:38:16;;;;;;;13.17;5.03;;;10.00;1.00;;;;;;5005567;28;20466;-70
2023/05/17 03:40:43;;;;;;;9.47;5.40;;;10.00;1.00;;;;;;5007850;28;20458;-69
2023/05/17 03:43:12;;;;;;;8.33;5.43;;;10.10;1.00;;;;;;4995952;28;20464;-69
2023/05/17 03:45:39;;;;;;;12.23;5.13;;;10.10;1.00;;;;;;5000463;28;20595;-68
2023/05/17 03:48:06;;;;;;;7.97;5.13;;;10.10;1.00;;;;;;4994004;28;20466;-70
2023/05/17 03:50:33;;;;;;;7.37;4.53;;;10.10;1.00;;;;;;4998655;28;20461;-69
2023/05/17 03:53:00;;;;;;;8.63;4.67;;;10.20;1.00;;;;;;5009146;28;20493;-69
2023/05/17 03:55:27;;;;;;;12.30;5.47;;;10.20;1.00;;;;;;5020251;28;20469;-69
2023/05/17 03:57:54;;;;;;;12.03;6.63;;;10.30;1.00;;;;;;5012069;28;20996;-69
2023/05/17 04:00:23;;;;;;;8.60;5.20;;;10.20;1.00;;;;;;5010699;28;20457;-71
2023/05/17 04:02:51;;;;;;;11.20;5.47;;;10.20;1.00;;;;;;5005406;28;20519;-70
2023/05/17 04:05:18;;;;;;;13.10;5.83;;;10.20;1.00;;;;;;5004096;28;20525;-70
2023/05/17 04:07:45;;;;;;;11.63;5.57;;;10.20;1.00;;;;;;5015298;28;20465;-70
2023/05/17 04:10:12;;;;;;;10.50;5.33;;;10.10;1.00;;;;;;5026006;28;20461;-70
2023/05/17 04:12:40;;;;;;;8.93;5.17;;;10.00;1.00;;;;;;5022060;28;20489;-69
2023/05/17 04:15:08;;;;;;;7.93;5.30;;;9.90;1.00;;;;;;5028060;28;21286;-70
2023/05/17 04:17:36;;;;;;;12.47;5.80;;;9.90;1.00;;;;;;5029222;28;20572;-69
2023/05/17 04:20:05;;;;;;;11.23;5.33;;;9.80;1.00;;;;;;5028691;28;20540;-70
2023/05/17 04:22:32;;;;;;;12.93;5.73;;;9.80;1.00;;;;;;5027840;28;20528;-70
2023/05/17 04:24:59;;;;;;;10.60;5.90;;;9.70;1.00;;;;;;5026838;28;20484;-70
2023/05/17 04:27:26;;;;;;;15.50;6.07;;;9.70;1.00;;;;;;5027893;28;20453;-70
2023/05/17 04:29:53;;;;;;;8.40;4.90;;;9.70;1.00;;;;;;5025791;28;21403;-69
2023/05/17 04:32:20;;;;;;;11.23;5.43;;;9.80;1.00;;;;;;5019165;28;20657;-70
2023/05/17 04:34:48;;;;;;;15.23;7.43;;;9.80;1.00;;;;;;5027038;28;20485;-71
2023/05/17 04:37:15;;;;;;;10.63;5.30;;;9.90;1.00;;;;;;5024914;28;21298;-70
2023/05/17 04:39:42;;;;;;;7.70;4.97;;;10.00;1.00;;;;;;5023196;28;20473;-70
2023/05/17 04:42:09;;;;;;;10.03;5.23;;;10.00;1.00;;;;;;5027831;28;20643;-70
2023/05/17 04:44:36;;;;;;;16.67;6.40;;;10.10;1.00;;;;;;5014309;28;21406;-70
2023/05/17 04:47:03;;;;;;;12.43;5.67;;;10.00;1.00;;;;;;5018835;28;20628;-70
2023/05/17 04:49:30;;;;;;;7.30;4.60;;;10.00;1.00;;;;;;5002388;28;20474;-70
2023/05/17 04:51:58;;;;;;;18.73;6.30;;;10.00;1.00;;;;;;5011588;28;20557;-70
2023/05/17 04:54:26;;;;;;;11.17;5.63;;;10.10;1.00;;;;;;5009969;28;20548;-70
2023/05/17 04:56:53;;;;;;;11.33;6.57;;;10.10;1.00;;;;;;5020244;28;20457;-69
2023/05/17 04:59:20;;;;;;;10.30;5.70;;;10.10;1.00;;;;;;5007595;28;20506;-69
2023/05/17 05:01:47;;;;;;;10.17;5.23;;;10.10;1.00;;;;;;5014083;28;20454;-69
2023/05/17 05:04:17;;;;;;;11.80;5.93;;;10.10;1.00;;;;;;4999896;28;20553;-71
2023/05/17 05:06:44;;;;;;;13.13;5.80;;;10.20;1.00;;;;;;5007613;28;20960;-70
2023/05/17 05:09:12;;;;;;;11.10;5.57;;;10.10;1.00;;;;;;5013718;28;20488;-70
2023/05/17 05:11:40;;;;;;;9.87;6.00;;;10.10;1.00;;;;;;5001064;28;21169;-70
2023/05/17 05:14:06;;;;;;;14.00;5.00;;;10.10;1.00;;;;;;5001910;28;20556;-71
2023/05/17 05:16:34;;;;;;;16.47;8.73;;;10.10;1.00;;;;;;5011156;28;20511;-69
2023/05/17 05:19:01;;;;;;;13.53;7.07;;;10.20;1.00;;;;;;5016754;28;20457;-69
2023/05/17 05:21:28;;;;;;;17.27;7.40;;;10.20;1.00;;;;;;5021967;28;20960;-69
2023/05/17 05:23:54;;;;;;;11.53;5.47;;;10.20;1.00;;;;;;5022092;28;20936;-70
2023/05/17 05:26:23;;;;;;;9.70;4.53;;;10.30;1.00;;;;;;5021675;28;20518;-70
2023/05/17 05:28:50;;;;;;;14.20;5.90;;;10.40;1.00;;;;;;5005818;28;20462;-70
2023/05/17 05:31:17;;;;;;;9.93;6.20;;;10.40;1.00;;;;;;5020904;28;20525;-69
2023/05/17 05:33:44;;;;;;;12.13;5.20;;;10.40;1.00;;;;;;5010522;28;20593;-69
2023/05/17 05:36:11;;;;;;;16.30;6.00;;;10.50;1.00;;;;;;5020384;28;20569;-70
2023/05/17 05:38:38;;;;;;;10.10;4.10;;;10.50;1.00;;;;;;5019190;28;20489;-69
2023/05/17 05:41:05;;;;;;;7.40;4.27;;;10.50;1.00;;;;;;5017046;28;20456;-71
2023/05/17 05:43:34;;;;;;;12.80;4.50;;;10.50;1.00;;;;;;5002626;28;20474;-70
2023/05/17 05:46:04;;;;;;;9.57;5.40;;;10.60;1.00;;;;;;4995345;28;20521;-74
2023/05/17 05:48:31;;;;;;;7.07;4.63;;;10.60;1.00;;;;;;5002936;28;21276;-71
2023/05/17 05:50:58;;;;;;;11.87;5.33;;;10.70;1.00;;;;;;5008968;28;20604;-70
2023/05/17 05:53:25;;;;;;;11.57;5.77;;;10.90;1.00;;;;;;5010330;28;20501;-69
2023/05/17 05:55:52;;;;;;;12.80;5.50;;;11.10;1.00;;;;;;5008019;28;20469;-71
2023/05/17 05:58:19;;;;;;;8.60;4.53;;;11.30;1.00;;;;;;5009668;28;20478;-72
2023/05/17 06:00:47;;;;;;;14.13;5.53;;;11.40;1.00;;;;;;5014237;28;20466;-71
2023/05/17 06:03:15;;;;;;;11.67;4.03;;;11.50;1.00;;;;;;5007957;28;20499;-70
2023/05/17 06:05:42;;;;;;;11.40;4.70;;;11.50;1.00;;;;;;5004036;28;20457;-71
2023/05/17 06:08:09;;;;;;;10.17;5.27;;;11.60;1.00;;;;;;5013022;28;21347;-71
2023/05/17 06:10:36;;;;;;;7.63;4.23;;;11.80;1.00;;;;;;5002855;28;20446;-70
2023/05/17 06:13:03;;;;;;;12.57;5.60;;;11.90;1.00;;;;;;5003295;28;20478;-71
2023/05/17 06:15:32;;;;;;;8.17;4.23;;;11.80;1.00;;;;;;5002348;28;20464;-70
2023/05/17 06:18:01;;;;;;;8.87;4.10;;;11.80;1.00;;;;;;5018375;28;20536;-71
2023/05/17 06:20:29;;;;;;;8.40;4.37;;;11.70;1.00;;;;;;5015515;28;21006;-70
2023/05/17 06:22:56;;;;;;;9.13;4.07;;;11.70;1.00;;;;;;5018527;28;20508;-71
2023/05/17 06:25:23;;;;;;;8.87;3.83;;;11.80;1.00;;;;;;5019571;28;20477;-69
2023/05/17 06:27:50;;;;;;;7.60;3.80;;;11.60;1.00;;;;;;5020928;28;20891;-70
2023/05/17 06:30:17;;;;;;;8.80;4.17;;;11.50;1.00;;;;;;5023614;28;20552;-70
2023/05/17 06:32:44;;;;;;;7.10;4.00;;;11.50;1.00;;;;;;5029753;28;20468;-70
2023/05/17 06:35:13;;;;;;;8.97;3.63;;;11.50;1.00;;;;;;5013302;28;20533;-70
2023/05/17 06:37:40;;;;;;;10.73;3.97;;;11.60;1.00;;;;;;5016100;28;20450;-71
2023/05/17 06:40:09;;;;;;;6.20;3.60;;;11.50;1.00;;;;;;5029088;28;20532;-71
2023/05/17 06:42:36;;;;;;;11.50;4.33;;;11.50;1.00;;;;;;5030370;28;20484;-68
2023/05/17 06:45:04;;;;;;;8.73;3.43;;;11.80;1.00;;;;;;5028708;28;20461;-69
2023/05/17 06:47:31;;;;;;;9.13;3.43;;;12.00;1.00;;;;;;5032522;28;20492;-70
2023/05/17 06:49:59;;;;;;;8.43;4.10;;;12.10;1.00;;;;;;5028995;28;20449;-71
2023/05/17 06:52:27;;;;;;;11.80;3.83;;;11.90;1.00;;;;;;5026970;28;20585;-70
2023/05/17 06:54:54;;;;;;;7.97;2.90;;;11.70;1.00;;;;;;5015189;28;21102;-71
2023/05/17 06:57:21;;;;;;;11.63;3.90;;;11.50;1.00;;;;;;5012197;28;20586;-71
2023/05/17 06:59:48;;;;;;;9.20;4.07;;;11.40;1.00;;;;;;5006463;28;20463;-69
2023/05/17 07:02:15;;;;;;;6.27;3.33;;;11.30;1.00;;;;;;5003354;28;20473;-70
2023/05/17 07:04:42;;;;;;;9.07;3.97;;;11.40;1.00;;;;;;5012266;28;21297;-71
2023/05/17 07:07:10;;;;;;;9.20;3.13;;;11.50;1.00;;;;;;5012790;28;20493;-69
2023/05/17 07:09:38;;;;;;;9.10;3.00;;;11.70;1.00;;;;;;5008929;28;20498;-70
2023/05/17 07:12:06;;;;;;;6.83;3.30;;;11.80;1.00;;;;;;5005129;28;20564;-70
2023/05/17 07:14:33;;;;;;;6.33;2.87;;;11.80;1.00;;;;;;5007970;28;20548;-69
2023/05/17 07:17:00;;;;;;;6.00;3.33;;;11.80;1.00;;;;;;5011479;28;20458;-71
2023/05/17 07:19:27;;;;;;;10.83;3.30;;;11.70;1.00;;;;;;5032375;28;20962;-71
2023/05/17 07:21:55;;;;;;;7.10;2.77;;;11.70;1.00;;;;;;5024547;28;20477;-69
2023/05/17 07:24:22;;;;;;;6.93;3.10;;;11.70;1.00;;;;;;5022180;28;20477;-71
2023/05/17 07:26:50;;;;;;;10.23;3.50;;;11.70;1.00;;;;;;5010867;28;20589;-69
2023/05/17 07:29:17;;;;;;;7.10;2.70;;;11.70;1.00;;;;;;5011434;28;20463;-70
2023/05/17 07:31:44;;;;;;;9.43;4.10;;;11.80;1.00;;;;;;5026261;28;20558;-70
2023/05/17 07:34:11;;;;;;;4.67;2.50;;;12.00;1.00;;;;;;5018196;28;20458;-71
2023/05/17 07:36:38;;;;;;;3.30;2.10;;;12.00;1.00;;;;;;5008292;28;20488;-70
2023/05/17 07:39:05;;;;;;;6.10;2.90;;;12.10;1.00;;;;;;5010529;28;20533;-70
2023/05/17 07:41:32;;;;;;;7.40;3.43;;;12.20;1.00;;;;;;5019902;28;21066;-70
2023/05/17 07:44:01;;;;;;;5.97;3.00;;;12.50;1.00;;;;;;5024247;28;20458;-72
2023/05/17 07:46:28;;;;;;;7.93;3.30;;;12.70;1.00;;;;;;5016438;28;20481;-70
2023/05/17 07:48:55;;;;;;;8.10;3.43;;;13.10;1.00;;;;;;5016943;28;20940;-71
2023/05/17 07:51:22;;;;;;;10.77;3.70;;;13.70;1.00;;;;;;5025322;28;20466;-71
2023/05/17 07:53:49;;;;;;;8.07;3.33;;;14.30;1.00;;;;;;5023254;28;20610;-71
2023/05/17 07:56:16;;;;;;;6.90;3.53;;;14.80;1.00;;;;;;5021574;28;20539;-71
2023/05/17 07:58:43;;;;;;;7.17;3.20;;;15.10;1.00;;;;;;5014095;28;20549;-70
2023/05/17 08:01:11;;;;;;;9.10;4.23;;;14.90;1.00;;;;;;5017284;28;21293;-70
2023/05/17 08:03:38;;;;;;;10.83;5.07;;;14.50;1.00;;;;;;5025429;28;20494;-70
2023/05/17 08:06:05;;;;;;;7.17;3.33;;;14.10;1.00;;;;;;5026321;28;20479;-69
2023/05/17 08:08:33;;;;;;;7.73;2.90;;;13.70;1.00;;;;;;5011713;28;20476;-70
2023/05/17 08:10:59;;;;;;;9.37;3.47;;;13.70;1.00;;;;;;5018238;28;20474;-69
2023/05/17 08:13:26;;;;;;;12.73;3.10;;;13.60;1.00;;;;;;5024266;28;20557;-71
2023/05/17 08:15:53;;;;;;;6.40;3.13;;;13.70;1.00;;;;;;5016940;28;20463;-70
2023/05/17 08:18:21;;;;;;;6.10;2.50;;;13.90;1.00;;;;;;5020771;28;20478;-71
2023/05/17 08:20:49;;;;;;;4.00;2.10;;;13.90;1.00;;;;;;5019587;28;20482;-70
2023/05/17 08:23:16;;;;;;;7.07;2.77;;;13.70;1.00;;;;;;5013898;28;20545;-71
2023/05/17 08:25:43;;;;;;;7.97;2.53;;;13.60;1.00;;;;;;5013131;28;20458;-70
2023/05/17 08:28:09;;;;;;;4.40;2.47;;;13.60;1.00;;;;;;5017761;28;20464;-70
2023/05/17 08:30:36;;;;;;;9.60;3.40;;;13.60;1.00;;;;;;5022108;28;20593;-69
2023/05/17 08:33:03;;;;;;;5.63;2.50;;;13.50;1.00;;;;;;5020022;28;20556;-69
2023/05/17 08:35:32;;;;;;;7.80;2.70;;;13.60;1.00;;;;;;5026306;28;20985;-69
2023/05/17 08:37:59;;;;;;;5.50;2.50;;;13.80;1.00;;;;;;5021211;28;20508;-70
2023/05/17 08:40:27;;;;;;;8.80;2.80;;;14.10;1.00;;;;;;5007625;28;20475;-70
2023/05/17 08:42:54;;;;;;;6.67;2.70;;;14.30;1.00;;;;;;5007583;28;20594;-70
2023/05/17 08:45:22;;;;;;;6.70;2.47;;;14.40;1.00;;;;;;5007158;28;20507;-69
2023/05/17 08:47:53;;;;;;;5.73;2.70;;;14.60;1.00;;;;;;5004871;28;20961;-68
2023/05/17 08:50:20;;;;;;;8.60;3.00;;;14.70;1.00;;;;;;5010095;28;20584;-68
2023/05/17 08:52:50;;;;;;;6.33;3.40;;;14.80;1.00;;;;;;5004006;28;20979;-69
2023/05/17 08:55:17;;;;;;;9.00;3.63;;;14.80;1.00;;;;;;5021177;28;20476;-69
2023/05/17 08:57:45;;;;;;;6.77;2.97;;;14.70;1.00;;;;;;5018478;28;20475;-69
2023/05/17 09:00:18;;;;;;;6.43;3.33;;;14.50;1.00;;;;;;5007035;28;21110;-69
2023/05/17 09:02:44;;;;;;;9.20;3.20;;;14.60;1.00;;;;;;5017217;28;20465;-71
2023/05/17 09:05:12;;;;;;;9.73;4.40;;;14.70;1.00;;;;;;5020034;28;20484;-69
2023/05/17 09:07:41;;;;;;;10.67;3.20;;;14.80;1.00;;;;;;5023430;28;20511;-69
2023/05/17 09:10:12;;;;;;;7.63;3.10;;;14.80;1.00;;;;;;5009917;28;20486;-68
2023/05/17 09:12:39;;;;;;;9.50;3.13;;;14.90;1.00;;;;;;5022147;28;20456;-71
2023/05/17 09:15:14;;;;;;;7.00;3.13;;;15.00;1.00;;;;;;5009184;28;20464;-70
2023/05/17 09:17:41;;;;;;;5.23;2.50;;;14.80;1.00;;;;;;5022719;28;21197;-69
2023/05/17 09:20:09;;;;;;;6.17;3.10;;;14.60;1.00;;;;;;5019019;28;20480;-68
2023/05/17 09:22:37;;;;;;;5.70;2.57;;;14.80;1.00;;;;;;5008122;28;20453;-70
2023/05/17 09:25:04;;;;;;;6.20;3.00;;;15.30;1.00;;;;;;5011170;28;20465;-69
2023/05/17 09:27:32;;;;;;;12.77;3.63;;;16.10;1.00;;;;;;5013265;28;20917;-68
2023/05/17 09:30:00;;;;;;;7.80;3.10;;;17.10;1.00;;;;;;5018787;28;20560;-69
2023/05/17 09:32:27;;;;;;;9.63;4.07;;;18.40;1.00;;;;;;5021641;28;20669;-69
2023/05/17 09:34:56;;;;;;;4.53;3.00;;;20.00;1.00;;;;;;5016017;28;20488;-69
2023/05/17 09:37:24;;;;;;;9.60;3.90;;;21.40;1.00;;;;;;5008509;28;20464;-70
2023/05/17 09:39:52;;;;;;;5.37;3.00;;;22.70;1.00;;;;;;5010079;28;20504;-69
2023/05/17 09:42:19;;;;;;;7.30;2.57;;;23.50;1.00;;;;;;5010806;28;20457;-69
2023/05/17 09:44:53;;;;;;;10.30;3.13;;;24.10;1.00;;;;;;5012551;28;20816;-69
2023/05/17 09:47:25;;;;;;;9.50;2.77;;;23.80;1.00;;;;;;5007850;28;20912;-69
2023/05/17 09:49:52;;;;;;;14.13;4.33;;;24.00;1.00;;;;;;5023015;28;20565;-69
2023/05/17 09:52:20;;;;;;;7.90;2.87;;;24.50;1.00;;;;;;5028508;28;20547;-70
2023/05/17 09:54:54;;;;;;;5.80;3.27;;;25.00;1.00;;;;;;5031851;28;20545;-70
2023/05/17 09:57:21;;;;;;;4.70;2.20;;;25.30;1.00;;;;;;5026877;28;20938;-69
2023/05/17 09:59:49;;;;;;;7.43;2.90;;;25.80;1.00;;;;;;5026705;28;20841;-71
2023/05/17 10:02:22;;;;;;;4.47;2.63;;;26.10;1.00;;;;;;5019236;28;20547;-69
2023/05/17 10:04:51;;;;;;;6.67;2.30;;;26.30;1.00;;;;;;5015653;28;20474;-70
2023/05/17 10:07:20;;;;;;;6.27;2.37;;;26.10;1.00;;;;;;5008852;28;20550;-69
2023/05/17 10:09:48;;;;;;;5.03;2.30;;;25.90;1.00;;;;;;5012696;28;20657;-69
2023/05/17 10:12:19;;;;;;;7.60;2.63;;;26.20;1.00;;;;;;5010662;28;20574;-69
2023/05/17 10:14:46;;;;;;;9.40;3.60;;;26.20;1.00;;;;;;5022821;28;20469;-70
2023/05/17 10:17:15;;;;;;;6.03;2.50;;;26.10;1.00;;;;;;5019953;28;20497;-69
2023/05/17 10:19:45;;;;;;;3.70;2.50;;;26.50;1.00;;;;;;5025444;28;20463;-69
2023/05/17 10:22:13;;;;;;;5.43;2.43;;;26.90;1.00;;;;;;5012867;28;20510;-69
2023/05/17 10:24:40;;;;;;;4.33;2.00;;;27.10;1.00;;;;;;5026479;28;20496;-70
2023/05/17 10:27:07;;;;;;;7.07;2.50;;;27.30;1.00;;;;;;5027211;28;20494;-74
2023/05/17 10:29:34;;;;;;;7.10;2.30;;;27.10;1.00;;;;;;5009519;28;20583;-73
2023/05/17 10:32:06;;;;;;;5.30;3.23;;;27.10;1.00;;;;;;5011508;28;20476;-76
2023/05/17 10:34:34;;;;;;;8.33;3.00;;;26.90;1.00;;;;;;5027418;28;20560;-75
2023/05/17 10:37:04;;;;;;;5.37;2.43;;;26.80;1.00;;;;;;5028559;28;20554;-74
2023/05/17 10:39:33;;;;;;;6.53;2.70;;;26.60;1.00;;;;;;5025707;28;20499;-74
2023/05/17 10:42:03;;;;;;;5.80;2.13;;;26.70;1.00;;;;;;5017003;28;20840;-74
2023/05/17 10:44:32;;;;;;;6.37;3.20;;;26.90;1.00;;;;;;5008794;28;20564;-73
2023/05/17 10:47:00;;;;;;;4.70;2.37;;;27.40;1.00;;;;;;5005590;28;20992;-76
2023/05/17 10:49:31;;;;;;;8.83;3.13;;;28.00;1.00;;;;;;5028049;28;20596;-74
2023/05/17 10:51:59;;;;;;;4.13;2.40;;;28.30;1.00;;;;;;5001389;28;20455;-73
2023/05/17 10:54:38;;;;;;;5.70;2.57;;;28.60;1.00;;;;;;5016792;28;20461;-72
2023/05/17 10:57:08;;;;;;;5.40;3.00;;;28.60;1.00;;;;;;5002851;28;20487;-74
2023/05/17 10:59:35;;;;;;;5.60;2.00;;;29.10;1.00;;;;;;5015121;28;21001;-73
2023/05/17 11:02:04;;;;;;;6.00;2.60;;;29.80;1.00;;;;;;5009846;28;20993;-72
2023/05/17 11:04:37;;;;;;;7.00;4.40;;;30.20;1.00;;;;;;5009495;28;20881;-72
2023/05/17 11:07:28;;;;;;;6.07;2.90;;;30.50;1.00;;;;;;5006811;28;20457;-73
2023/05/17 11:10:05;;;;;;;3.70;2.13;;;30.00;1.00;;;;;;5013450;28;20490;-73
2023/05/17 11:12:36;;;;;;;3.90;2.20;;;29.50;1.00;;;;;;5021514;28;20463;-72
2023/05/17 11:15:07;;;;;;;5.07;2.87;;;29.90;1.00;;;;;;5017978;28;20479;-72
2023/05/17 11:17:36;;;;;;;6.10;2.90;;;30.40;1.00;;;;;;5013552;28;20478;-73
2023/05/17 11:20:09;;;;;;;5.97;2.90;;;30.80;1.00;;;;;;5015940;28;20493;-73
2023/05/17 11:22:38;;;;;;;7.70;5.00;;;31.30;1.00;;;;;;5012547;28;20458;-72
2023/05/17 11:25:12;;;;;;;4.57;2.37;;;31.40;1.00;;;;;;5012286;28;20853;-75
2023/05/17 11:27:45;;;;;;;5.57;3.03;;;31.60;1.00;;;;;;5013333;28;20477;-75
2023/05/17 11:30:23;;;;;;;10.60;3.00;;;31.90;1.00;;;;;;5009754;28;20470;-75
2023/05/17 11:32:51;;;;;;;8.37;4.60;;;32.10;1.00;;;;;;5012196;28;20876;-75
2023/05/17 11:35:27;;;;;;;6.47;2.53;;;32.10;1.00;;;;;;5022106;28;20520;-76
2023/05/17 11:38:12;;;;;;;7.50;3.10;;;32.00;1.00;;;;;;5009862;28;21029;-75
2023/05/17 11:40:41;;;;;;;6.83;2.63;;;31.70;1.00;;;;;;5017306;28;20521;-77
2023/05/17 11:43:13;;;;;;;6.90;3.00;;;31.90;1.00;;;;;;5033065;28;20511;-77
2023/05/17 11:45:46;;;;;;;4.60;2.03;;;32.30;1.00;;;;;;5034367;28;20480;-74
2023/05/17 11:48:14;;;;;;;10.00;3.10;;;32.40;1.00;;;;;;5033408;28;20476;-74
2023/05/17 11:50:41;;;;;;;7.73;2.87;;;32.40;1.00;;;;;;5031053;28;20476;-74
2023/05/17 11:53:09;;;;;;;3.47;2.20;;;32.40;1.00;;;;;;5033142;28;20547;-74
2023/05/17 11:55:40;;;;;;;6.47;2.80;;;32.00;1.00;;;;;;5031055;28;20516;-74
2023/05/17 11:58:11;;;;;;;6.40;2.97;;;30.90;1.00;;;;;;5028454;28;20551;-74
2023/05/17 12:00:39;;;;;;;7.20;3.40;;;29.50;1.00;;;;;;5034004;28;20531;-73
2023/05/17 12:03:25;;;;;;;3.90;2.40;;;29.80;1.00;;;;;;5031104;28;20461;-73
2023/05/17 12:06:02;;;;;;;4.80;2.20;;;30.10;1.00;;;;;;5031862;28;21034;-73
2023/05/17 12:08:29;;;;;;;5.33;2.60;;;29.80;1.00;;;;;;5028361;28;20461;-73
2023/05/17 12:10:56;;;;;;;5.17;2.60;;;29.90;1.00;;;;;;5012082;28;20860;-73
2023/05/17 12:13:27;;;;;;;4.77;2.30;;;30.40;1.00;;;;;;5018085;28;21035;-75
2023/05/17 12:15:57;;;;;;;4.63;2.33;;;30.80;1.00;;;;;;5029496;28;20468;-75
2023/05/17 12:18:24;;;;;;;9.93;3.27;;;31.50;1.00;;;;;;5027275;28;20541;-75
2023/05/17 12:20:55;;;;;;;7.07;2.73;;;32.30;1.00;;;;;;5017992;28;20527;-75
2023/05/17 12:23:30;;;;;;;3.40;2.27;;;31.80;1.00;;;;;;5015402;28;20831;-74
2023/05/17 12:26:08;;;;;;;6.10;3.10;;;31.90;1.00;;;;;;5016095;28;20956;-74
2023/05/17 12:28:38;;;;;;;6.40;2.47;;;32.40;1.00;;;;;;5004903;28;20473;-73
2023/05/17 12:31:11;;;;;;;7.23;2.40;;;31.90;1.00;;;;;;4999186;28;20484;-75
2023/05/17 12:33:40;;;;;;;8.00;2.20;;;31.80;1.00;;;;;;5015343;28;21044;-74
2023/05/17 12:36:09;;;;;;;7.20;2.73;;;32.30;1.00;;;;;;5029898;28;20544;-74
2023/05/17 12:38:39;;;;;;;4.97;2.77;;;32.40;1.00;;;;;;5021195;28;20462;-75
2023/05/17 12:41:08;;;;;;;7.67;3.30;;;32.70;1.00;;;;;;4993599;28;20914;-74
2023/05/17 12:43:38;;;;;;;4.93;2.60;;;33.10;1.00;;;;;;4998634;28;20482;-74
2023/05/17 12:46:10;;;;;;;3.80;2.37;;;32.60;1.00;;;;;;5023688;28;20480;-75
2023/05/17 12:48:38;;;;;;;8.60;3.17;;;32.00;1.00;;;;;;5008531;28;20454;-73
2023/05/17 12:51:09;;;;;;;3.50;2.10;;;31.70;1.00;;;;;;5023067;28;20567;-73
2023/05/17 12:53:38;;;;;;;3.93;2.23;;;31.90;1.00;;;;;;5029904;28;20464;-73
2023/05/17 12:56:05;;;;;;;8.40;2.90;;;32.40;1.00;;;;;;5023475;28;20484;-74
2023/05/17 12:58:33;;;;;;;5.47;2.30;;;33.00;1.00;;;;;;5008903;28;20454;-77
2023/05/17 13:01:03;;;;;;;8.37;3.33;;;33.30;1.00;;;;;;5009296;28;20931;-78
2023/05/17 13:03:31;;;;;;;7.20;3.90;;;33.60;1.00;;;;;;5011715;28;20515;-76